createdAt,value
2017-11-20T00:04:23.229Z,5.6
2017-11-20T00:20:59.017Z,5.6
2017-11-20T00:37:34.926Z,5.3
2017-11-20T00:54:10.746Z,5.3
2017-11-20T01:10:47.042Z,5.3
2017-11-20T01:27:22.287Z,5.3
2017-11-20T01:43:58.121Z,5.3
2017-11-20T02:00:33.862Z,5.3
2017-11-20T02:17:09.685Z,5.6
2017-11-20T02:33:45.554Z,5.6
2017-11-20T02:50:21.373Z,5.3
2017-11-20T03:06:57.127Z,5.3
2017-11-20T03:23:33.455Z,5.3
2017-11-20T03:40:09.172Z,5.3
2017-11-20T03:56:44.438Z,5.3
2017-11-20T04:13:20.286Z,5.3
2017-11-20T04:29:56.069Z,5.3
2017-11-20T04:46:31.913Z,5.3
2017-11-20T05:03:07.748Z,5.6
2017-11-20T05:19:43.672Z,5.6
2017-11-20T05:36:19.704Z,5.6
2017-11-20T05:52:55.845Z,5.6
2017-11-20T06:09:31.698Z,5.6
2017-11-20T06:26:07.686Z,5.3
2017-11-20T06:42:43.552Z,5.3
2017-11-20T06:59:19.450Z,5.3
2017-11-20T07:15:55.312Z,5.3
2017-11-20T07:32:31.211Z,5.6
2017-11-20T07:49:07.088Z,5.6
2017-11-20T08:05:43.072Z,5.3
2017-11-20T08:22:19.023Z,5.3
2017-11-20T08:55:30.762Z,5.3
2017-11-20T09:12:06.537Z,5.3
2017-11-20T09:28:42.218Z,5.3
2017-11-20T09:45:18.060Z,5.3
2017-11-20T10:01:53.738Z,5.3
2017-11-20T10:18:29.434Z,5.0
2017-11-20T10:35:05.187Z,5.3
2017-11-20T10:51:42.167Z,5.3
2017-11-20T11:08:16.579Z,5.0
2017-11-20T11:41:27.655Z,5.0
2017-11-20T11:58:03.133Z,5.0
2017-11-20T12:14:38.688Z,5.0
2017-11-20T12:31:14.400Z,5.0
2017-11-20T12:47:50.309Z,5.0
2017-11-20T13:04:26.314Z,5.0
2017-11-20T13:21:02.572Z,5.0
2017-11-20T13:37:38.236Z,5.0
2017-11-20T14:27:26.397Z,5.0
2017-11-20T14:44:02.214Z,5.3
2017-11-20T15:00:38.414Z,5.3
2017-11-20T15:17:14.369Z,5.3
2017-11-20T15:33:50.333Z,5.3
2017-11-20T15:50:26.061Z,5.3
2017-11-20T16:07:01.960Z,5.6
2017-11-20T16:23:37.962Z,5.6
2017-11-20T16:40:14.030Z,5.9
2017-11-20T16:56:50.266Z,5.9
2017-11-20T17:13:26.539Z,6.2
2017-11-20T17:30:02.921Z,6.2
2017-11-20T17:46:39.299Z,6.2
2017-11-20T18:03:15.758Z,6.6
2017-11-20T18:19:52.400Z,6.6
2017-11-20T18:36:29.090Z,6.6
2017-11-20T19:09:42.809Z,6.9
2017-11-20T19:26:20.002Z,7.2
2017-11-20T19:42:57.049Z,7.2
2017-11-20T19:59:34.376Z,7.5
2017-11-20T20:16:11.823Z,7.8
2017-11-20T20:32:49.578Z,8.2
2017-11-20T20:49:27.412Z,8.5
2017-11-20T21:06:05.497Z,8.8
2017-11-20T21:22:43.942Z,8.8
2017-11-20T21:39:22.472Z,9.1
2017-11-20T21:56:00.942Z,9.1
2017-11-20T22:12:39.583Z,9.4
2017-11-20T22:29:18.391Z,9.4
2017-11-20T22:45:57.209Z,9.4
2017-11-20T23:02:36.136Z,9.8
2017-11-20T23:19:15.050Z,9.8
2017-11-20T23:35:53.994Z,9.8
